sensor_id;sensor_type;location;lat;lon;timestamp;temperature;humidity
23683;DHT22;24897;53.514;10.482;2022-09-29T00:04:21;7.20;99.90
23683;DHT22;24897;53.514;10.482;2022-09-29T00:15:20;7.10;99.90
23683;DHT22;24897;53.514;10.482;2022-09-29T00:18:04;7.60;99.90
23683;DHT22;24897;53.514;10.482;2022-09-29T00:21:15;6.50;99.90
23683;DHT22;24897;53.514;10.482;2022-09-29T00:24:00;6.70;99.90
23683;DHT22;24897;53.514;10.482;2022-09-29T00:26:45;7.30;99.90
23683;DHT22;24897;53.514;10.482;2022-09-29T00:29:30;7.40;99.90
23683;DHT22;24897;53.514;10.482;2022-09-29T00:37:43;7.30;99.90
23683;DHT22;24897;53.514;10.482;2022-09-29T00:40:27;5.00;99.90
23683;DHT22;24897;53.514;10.482;2022-09-29T00:43:20;6.60;99.90
23683;DHT22;24897;53.514;10.482;2022-09-29T00:46:05;6.70;99.90
23683;DHT22;24897;53.514;10.482;2022-09-29T00:51:36;6.40;99.90
23683;DHT22;24897;53.514;10.482;2022-09-29T00:54:24;6.10;99.90
23683;DHT22;24897;53.514;10.482;2022-09-29T00:57:15;6.40;99.90
23683;DHT22;24897;53.514;10.482;2022-09-29T01:00:09;5.30;99.90
23683;DHT22;24897;53.514;10.482;2022-09-29T01:03:08;6.50;99.90
23683;DHT22;24897;53.514;10.482;2022-09-29T01:06:05;6.40;99.90
23683;DHT22;24897;53.514;10.482;2022-09-29T01:09:02;7.00;99.90
23683;DHT22;24897;53.514;10.482;2022-09-29T01:14:33;6.80;99.90
23683;DHT22;24897;53.514;10.482;2022-09-29T01:26:22;7.60;99.90
23683;DHT22;24897;53.514;10.482;2022-09-29T01:32:05;6.90;99.90
23683;DHT22;24897;53.514;10.482;2022-09-29T01:38:11;7.50;99.90
23683;DHT22;24897;53.514;10.482;2022-09-29T01:44:01;6.50;99.90
23683;DHT22;24897;53.514;10.482;2022-09-29T01:47:02;6.60;99.90
23683;DHT22;24897;53.514;10.482;2022-09-29T01:50:19;7.10;99.90
23683;DHT22;24897;53.514;10.482;2022-09-29T01:53:10;5.00;99.90
23683;DHT22;24897;53.514;10.482;2022-09-29T01:56:00;7.30;99.90
23683;DHT22;24897;53.514;10.482;2022-09-29T01:58:53;6.60;99.90
23683;DHT22;24897;53.514;10.482;2022-09-29T02:01:41;6.60;99.90
23683;DHT22;24897;53.514;10.482;2022-09-29T02:04:33;6.60;99.90
23683;DHT22;24897;53.514;10.482;2022-09-29T02:07:26;6.20;99.90
23683;DHT22;24897;53.514;10.482;2022-09-29T02:10:25;6.80;99.90
23683;DHT22;24897;53.514;10.482;2022-09-29T02:13:14;5.80;99.90
23683;DHT22;24897;53.514;10.482;2022-09-29T02:16:00;6.60;99.90
23683;DHT22;24897;53.514;10.482;2022-09-29T02:21:35;6.90;99.90
23683;DHT22;24897;53.514;10.482;2022-09-29T02:24:21;6.30;99.90
23683;DHT22;24897;53.514;10.482;2022-09-29T02:27:06;6.60;99.90
23683;DHT22;24897;53.514;10.482;2022-09-29T02:29:50;6.60;99.90
23683;DHT22;24897;53.514;10.482;2022-09-29T02:32:46;4.70;99.90
23683;DHT22;24897;53.514;10.482;2022-09-29T02:41:59;6.50;99.90
23683;DHT22;24897;53.514;10.482;2022-09-29T02:45:06;6.20;99.90
23683;DHT22;24897;53.514;10.482;2022-09-29T02:51:38;6.80;99.90
23683;DHT22;24897;53.514;10.482;2022-09-29T02:57:15;6.60;99.90
23683;DHT22;24897;53.514;10.482;2022-09-29T03:00:05;6.80;99.90
23683;DHT22;24897;53.514;10.482;2022-09-29T03:08:23;6.60;99.90
23683;DHT22;24897;53.514;10.482;2022-09-29T03:11:07;7.40;99.90
23683;DHT22;24897;53.514;10.482;2022-09-29T03:13:51;6.50;99.90
23683;DHT22;24897;53.514;10.482;2022-09-29T03:22:04;6.70;99.90
23683;DHT22;24897;53.514;10.482;2022-09-29T03:24:49;6.20;99.90
23683;DHT22;24897;53.514;10.482;2022-09-29T03:27:33;6.70;99.90
23683;DHT22;24897;53.514;10.482;2022-09-29T03:35:50;6.80;99.90
23683;DHT22;24897;53.514;10.482;2022-09-29T03:38:34;6.70;99.90
23683;DHT22;24897;53.514;10.482;2022-09-29T03:41:19;6.10;99.90
23683;DHT22;24897;53.514;10.482;2022-09-29T03:44:06;9.40;99.90
23683;DHT22;24897;53.514;10.482;2022-09-29T03:46:50;6.90;99.90
23683;DHT22;24897;53.514;10.482;2022-09-29T04:00:33;6.10;99.90
23683;DHT22;24897;53.514;10.482;2022-09-29T04:06:02;6.50;99.90
23683;DHT22;24897;53.514;10.482;2022-09-29T04:08:47;5.30;99.90
23683;DHT22;24897;53.514;10.482;2022-09-29T04:14:17;7.10;99.90
23683;DHT22;24897;53.514;10.482;2022-09-29T04:22:30;6.10;99.90
23683;DHT22;24897;53.514;10.482;2022-09-29T04:25:14;7.70;99.90
23683;DHT22;24897;53.514;10.482;2022-09-29T04:27:59;6.50;99.90
23683;DHT22;24897;53.514;10.482;2022-09-29T04:30:44;6.00;99.90
23683;DHT22;24897;53.514;10.482;2022-09-29T04:33:28;5.50;99.90
23683;DHT22;24897;53.514;10.482;2022-09-29T04:38:57;7.60;99.90
23683;DHT22;24897;53.514;10.482;2022-09-29T04:47:11;7.10;99.90
23683;DHT22;24897;53.514;10.482;2022-09-29T04:52:41;6.60;99.90
23683;DHT22;24897;53.514;10.482;2022-09-29T04:55:26;6.90;99.90
23683;DHT22;24897;53.514;10.482;2022-09-29T04:58:10;6.60;99.90
23683;DHT22;24897;53.514;10.482;2022-09-29T05:03:40;6.40;99.90
23683;DHT22;24897;53.514;10.482;2022-09-29T05:06:24;5.40;99.90
23683;DHT22;24897;53.514;10.482;2022-09-29T05:09:09;6.00;99.90
23683;DHT22;24897;53.514;10.482;2022-09-29T05:11:53;7.00;99.90
23683;DHT22;24897;53.514;10.482;2022-09-29T05:14:37;5.90;99.90
23683;DHT22;24897;53.514;10.482;2022-09-29T05:17:21;6.00;99.90
23683;DHT22;24897;53.514;10.482;2022-09-29T05:20:05;7.40;99.90
23683;DHT22;24897;53.514;10.482;2022-09-29T05:22:50;7.80;99.90
23683;DHT22;24897;53.514;10.482;2022-09-29T05:25:35;6.70;99.90
23683;DHT22;24897;53.514;10.482;2022-09-29T05:28:19;7.80;99.90
23683;DHT22;24897;53.514;10.482;2022-09-29T05:31:06;6.80;99.90
23683;DHT22;24897;53.514;10.482;2022-09-29T05:36:37;5.50;99.90
23683;DHT22;24897;53.514;10.482;2022-09-29T05:42:10;6.70;99.90
23683;DHT22;24897;53.514;10.482;2022-09-29T05:44:54;7.80;99.90
23683;DHT22;24897;53.514;10.482;2022-09-29T05:47:42;6.60;99.90
23683;DHT22;24897;53.514;10.482;2022-09-29T05:50:27;6.00;99.90
23683;DHT22;24897;53.514;10.482;2022-09-29T05:53:11;7.40;99.90
23683;DHT22;24897;53.514;10.482;2022-09-29T05:55:55;7.00;99.90
23683;DHT22;24897;53.514;10.482;2022-09-29T05:58:39;6.90;99.90
23683;DHT22;24897;53.514;10.482;2022-09-29T06:01:24;7.20;99.90
23683;DHT22;24897;53.514;10.482;2022-09-29T06:04:09;6.50;99.90
23683;DHT22;24897;53.514;10.482;2022-09-29T06:06:53;5.90;99.90
23683;DHT22;24897;53.514;10.482;2022-09-29T06:12:24;7.50;99.90
23683;DHT22;24897;53.514;10.482;2022-09-29T06:15:10;8.30;99.90
23683;DHT22;24897;53.514;10.482;2022-09-29T06:17:55;7.70;99.90
23683;DHT22;24897;53.514;10.482;2022-09-29T06:23:24;7.70;99.90
23683;DHT22;24897;53.514;10.482;2022-09-29T06:26:10;8.20;99.90
23683;DHT22;24897;53.514;10.482;2022-09-29T06:28:55;6.20;99.90
23683;DHT22;24897;53.514;10.482;2022-09-29T06:34:24;7.70;99.90
23683;DHT22;24897;53.514;10.482;2022-09-29T06:37:08;9.80;99.90
23683;DHT22;24897;53.514;10.482;2022-09-29T06:40:12;8.40;99.90
23683;DHT22;24897;53.514;10.482;2022-09-29T06:42:56;7.70;99.90
23683;DHT22;24897;53.514;10.482;2022-09-29T06:48:25;8.80;99.90
23683;DHT22;24897;53.514;10.482;2022-09-29T06:51:09;7.90;99.90
23683;DHT22;24897;53.514;10.482;2022-09-29T06:53:53;8.70;99.90
23683;DHT22;24897;53.514;10.482;2022-09-29T06:56:37;9.50;99.90
23683;DHT22;24897;53.514;10.482;2022-09-29T06:59:21;9.00;99.90
23683;DHT22;24897;53.514;10.482;2022-09-29T07:02:07;9.70;99.90
23683;DHT22;24897;53.514;10.482;2022-09-29T07:04:54;9.60;99.90
23683;DHT22;24897;53.514;10.482;2022-09-29T07:07:39;8.80;99.90
23683;DHT22;24897;53.514;10.482;2022-09-29T07:10:23;9.70;99.90
23683;DHT22;24897;53.514;10.482;2022-09-29T07:13:07;9.50;99.90
23683;DHT22;24897;53.514;10.482;2022-09-29T07:15:52;9.80;99.90
23683;DHT22;24897;53.514;10.482;2022-09-29T07:18:39;9.40;99.90
23683;DHT22;24897;53.514;10.482;2022-09-29T07:21:24;10.10;99.90
23683;DHT22;24897;53.514;10.482;2022-09-29T07:24:09;9.40;99.90
23683;DHT22;24897;53.514;10.482;2022-09-29T07:26:53;9.70;99.90
23683;DHT22;24897;53.514;10.482;2022-09-29T07:29:37;10.40;99.90
23683;DHT22;24897;53.514;10.482;2022-09-29T07:32:21;10.50;99.90
23683;DHT22;24897;53.514;10.482;2022-09-29T07:35:06;10.00;99.90
23683;DHT22;24897;53.514;10.482;2022-09-29T07:37:53;10.00;99.90
23683;DHT22;24897;53.514;10.482;2022-09-29T07:40:37;10.30;99.90
23683;DHT22;24897;53.514;10.482;2022-09-29T07:43:21;10.70;99.90
23683;DHT22;24897;53.514;10.482;2022-09-29T07:46:07;10.70;99.90
23683;DHT22;24897;53.514;10.482;2022-09-29T07:48:51;10.90;99.90
23683;DHT22;24897;53.514;10.482;2022-09-29T07:54:20;10.40;99.90
23683;DHT22;24897;53.514;10.482;2022-09-29T08:11:20;12.70;99.90
23683;DHT22;24897;53.514;10.482;2022-09-29T08:17:45;15.70;99.90
23683;DHT22;24897;53.514;10.482;2022-09-29T08:41:03;12.30;99.90
23683;DHT22;24897;53.514;10.482;2022-09-29T08:43:50;15.10;99.90
23683;DHT22;24897;53.514;10.482;2022-09-29T08:46:53;12.80;99.90
23683;DHT22;24897;53.514;10.482;2022-09-29T08:49:47;12.70;99.90
23683;DHT22;24897;53.514;10.482;2022-09-29T08:52:39;12.30;99.90
23683;DHT22;24897;53.514;10.482;2022-09-29T08:55:39;11.60;99.90
23683;DHT22;24897;53.514;10.482;2022-09-29T08:58:25;12.30;99.90
23683;DHT22;24897;53.514;10.482;2022-09-29T09:10:44;11.10;99.90
23683;DHT22;24897;53.514;10.482;2022-09-29T09:25:32;13.40;99.90
23683;DHT22;24897;53.514;10.482;2022-09-29T09:31:58;13.70;99.90
23683;DHT22;24897;53.514;10.482;2022-09-29T09:34:51;16.90;99.90
23683;DHT22;24897;53.514;10.482;2022-09-29T09:37:40;17.50;99.90
23683;DHT22;24897;53.514;10.482;2022-09-29T09:40:27;14.50;99.90
23683;DHT22;24897;53.514;10.482;2022-09-29T09:49:53;13.80;99.90
23683;DHT22;24897;53.514;10.482;2022-09-29T09:52:38;13.80;99.90
23683;DHT22;24897;53.514;10.482;2022-09-29T09:55:25;12.00;99.90
23683;DHT22;24897;53.514;10.482;2022-09-29T10:01:07;14.00;99.90
23683;DHT22;24897;53.514;10.482;2022-09-29T10:03:52;13.90;99.90
23683;DHT22;24897;53.514;10.482;2022-09-29T10:06:36;12.10;99.90
23683;DHT22;24897;53.514;10.482;2022-09-29T10:09:20;14.30;99.90
23683;DHT22;24897;53.514;10.482;2022-09-29T10:12:04;14.30;99.90
23683;DHT22;24897;53.514;10.482;2022-09-29T10:15:11;14.80;99.90
23683;DHT22;24897;53.514;10.482;2022-09-29T10:18:12;14.40;99.90
23683;DHT22;24897;53.514;10.482;2022-09-29T10:20:59;14.70;99.90
23683;DHT22;24897;53.514;10.482;2022-09-29T10:23:50;15.00;99.90
23683;DHT22;24897;53.514;10.482;2022-09-29T10:29:30;15.30;99.90
23683;DHT22;24897;53.514;10.482;2022-09-29T10:32:24;15.30;99.90
23683;DHT22;24897;53.514;10.482;2022-09-29T10:38:00;15.00;99.90
23683;DHT22;24897;53.514;10.482;2022-09-29T10:41:03;15.20;99.90
23683;DHT22;24897;53.514;10.482;2022-09-29T10:43:48;15.40;99.90
23683;DHT22;24897;53.514;10.482;2022-09-29T10:46:48;15.10;99.90
23683;DHT22;24897;53.514;10.482;2022-09-29T10:49:34;15.00;99.90
23683;DHT22;24897;53.514;10.482;2022-09-29T10:52:23;14.80;99.90
23683;DHT22;24897;53.514;10.482;2022-09-29T10:55:15;14.70;99.90
23683;DHT22;24897;53.514;10.482;2022-09-29T10:58:05;14.70;99.90
23683;DHT22;24897;53.514;10.482;2022-09-29T11:01:12;14.50;99.90
23683;DHT22;24897;53.514;10.482;2022-09-29T11:04:06;16.50;99.90
23683;DHT22;24897;53.514;10.482;2022-09-29T11:07:03;16.60;99.90
23683;DHT22;24897;53.514;10.482;2022-09-29T11:09:49;16.80;99.90
23683;DHT22;24897;53.514;10.482;2022-09-29T11:12:38;15.60;99.90
23683;DHT22;24897;53.514;10.482;2022-09-29T11:15:28;14.20;99.90
23683;DHT22;24897;53.514;10.482;2022-09-29T11:18:26;14.10;99.90
23683;DHT22;24897;53.514;10.482;2022-09-29T11:24:53;15.20;99.90
23683;DHT22;24897;53.514;10.482;2022-09-29T11:28:12;14.60;99.90
23683;DHT22;24897;53.514;10.482;2022-09-29T11:31:07;12.70;99.90
23683;DHT22;24897;53.514;10.482;2022-09-29T11:34:03;12.70;99.90
23683;DHT22;24897;53.514;10.482;2022-09-29T11:40:39;13.40;99.90
23683;DHT22;24897;53.514;10.482;2022-09-29T11:43:43;13.50;99.90
23683;DHT22;24897;53.514;10.482;2022-09-29T11:53:17;13.80;99.90
23683;DHT22;24897;53.514;10.482;2022-09-29T11:56:29;13.90;99.90
23683;DHT22;24897;53.514;10.482;2022-09-29T12:05:31;15.20;99.90
23683;DHT22;24897;53.514;10.482;2022-09-29T12:08:28;12.80;99.90
23683;DHT22;24897;53.514;10.482;2022-09-29T12:11:27;13.50;99.90
23683;DHT22;24897;53.514;10.482;2022-09-29T12:17:28;13.20;99.90
23683;DHT22;24897;53.514;10.482;2022-09-29T12:20:21;12.20;99.90
23683;DHT22;24897;53.514;10.482;2022-09-29T12:23:11;14.10;99.90
23683;DHT22;24897;53.514;10.482;2022-09-29T12:26:07;15.30;99.90
23683;DHT22;24897;53.514;10.482;2022-09-29T12:32:25;13.30;99.90
23683;DHT22;24897;53.514;10.482;2022-09-29T12:41:20;13.20;99.90
23683;DHT22;24897;53.514;10.482;2022-09-29T12:44:16;13.30;99.90
23683;DHT22;24897;53.514;10.482;2022-09-29T12:47:08;15.50;99.90
23683;DHT22;24897;53.514;10.482;2022-09-29T12:50:05;13.40;99.90
23683;DHT22;24897;53.514;10.482;2022-09-29T12:53:15;13.60;99.90
23683;DHT22;24897;53.514;10.482;2022-09-29T12:56:04;13.60;99.90
23683;DHT22;24897;53.514;10.482;2022-09-29T12:59:05;13.60;99.90
23683;DHT22;24897;53.514;10.482;2022-09-29T13:01:55;13.10;99.90
23683;DHT22;24897;53.514;10.482;2022-09-29T13:05:10;13.20;99.90
23683;DHT22;24897;53.514;10.482;2022-09-29T13:10:58;11.60;99.90
23683;DHT22;24897;53.514;10.482;2022-09-29T13:29:26;13.00;99.90
23683;DHT22;24897;53.514;10.482;2022-09-29T13:32:12;13.10;99.90
23683;DHT22;24897;53.514;10.482;2022-09-29T13:34:59;13.40;99.90
23683;DHT22;24897;53.514;10.482;2022-09-29T13:38:02;13.10;99.90
23683;DHT22;24897;53.514;10.482;2022-09-29T13:41:09;13.30;99.90
23683;DHT22;24897;53.514;10.482;2022-09-29T13:46:38;14.80;99.90
23683;DHT22;24897;53.514;10.482;2022-09-29T13:49:28;13.60;99.90
23683;DHT22;24897;53.514;10.482;2022-09-29T14:01:35;13.00;99.90
23683;DHT22;24897;53.514;10.482;2022-09-29T14:04:47;13.80;99.90
23683;DHT22;24897;53.514;10.482;2022-09-29T14:23:07;14.90;99.90
23683;DHT22;24897;53.514;10.482;2022-09-29T14:25:52;13.10;99.90
23683;DHT22;24897;53.514;10.482;2022-09-29T14:28:39;15.00;99.90
23683;DHT22;24897;53.514;10.482;2022-09-29T14:31:26;12.90;99.90
23683;DHT22;24897;53.514;10.482;2022-09-29T14:34:14;14.80;99.90
23683;DHT22;24897;53.514;10.482;2022-09-29T14:37:00;15.00;99.90
23683;DHT22;24897;53.514;10.482;2022-09-29T14:39:48;13.00;99.90
23683;DHT22;24897;53.514;10.482;2022-09-29T14:43:46;14.60;99.90
23683;DHT22;24897;53.514;10.482;2022-09-29T14:50:08;13.30;99.90
23683;DHT22;24897;53.514;10.482;2022-09-29T14:59:51;11.90;99.90
23683;DHT22;24897;53.514;10.482;2022-09-29T15:02:42;13.40;99.90
23683;DHT22;24897;53.514;10.482;2022-09-29T15:05:29;13.20;99.90
23683;DHT22;24897;53.514;10.482;2022-09-29T15:08:27;13.20;99.90
23683;DHT22;24897;53.514;10.482;2022-09-29T15:11:40;13.00;99.90
23683;DHT22;24897;53.514;10.482;2022-09-29T15:14:28;13.00;99.90
23683;DHT22;24897;53.514;10.482;2022-09-29T15:27:02;12.70;99.90
23683;DHT22;24897;53.514;10.482;2022-09-29T15:29:48;12.70;99.90
23683;DHT22;24897;53.514;10.482;2022-09-29T15:36:24;12.70;99.90
23683;DHT22;24897;53.514;10.482;2022-09-29T15:42:17;12.70;99.90
23683;DHT22;24897;53.514;10.482;2022-09-29T15:45:13;12.70;99.90
23683;DHT22;24897;53.514;10.482;2022-09-29T15:48:02;13.20;99.90
23683;DHT22;24897;53.514;10.482;2022-09-29T15:50:47;12.60;99.90
23683;DHT22;24897;53.514;10.482;2022-09-29T15:53:31;14.70;99.90
23683;DHT22;24897;53.514;10.482;2022-09-29T15:56:15;12.20;99.90
23683;DHT22;24897;53.514;10.482;2022-09-29T15:58:59;12.50;99.90
23683;DHT22;24897;53.514;10.482;2022-09-29T16:01:45;12.80;99.90
23683;DHT22;24897;53.514;10.482;2022-09-29T16:04:31;11.80;99.90
23683;DHT22;24897;53.514;10.482;2022-09-29T16:07:30;12.20;99.90
23683;DHT22;24897;53.514;10.482;2022-09-29T16:10:19;12.10;99.90
23683;DHT22;24897;53.514;10.482;2022-09-29T16:13:05;11.00;99.90
23683;DHT22;24897;53.514;10.482;2022-09-29T16:15:57;11.90;99.90
23683;DHT22;24897;53.514;10.482;2022-09-29T16:18:44;11.90;99.90
23683;DHT22;24897;53.514;10.482;2022-09-29T16:21:34;12.30;99.90
23683;DHT22;24897;53.514;10.482;2022-09-29T16:24:20;11.90;99.90
23683;DHT22;24897;53.514;10.482;2022-09-29T16:27:33;12.30;99.90
23683;DHT22;24897;53.514;10.482;2022-09-29T16:30:35;12.00;99.90
23683;DHT22;24897;53.514;10.482;2022-09-29T16:33:22;11.70;99.90
23683;DHT22;24897;53.514;10.482;2022-09-29T16:36:17;11.70;99.90
23683;DHT22;24897;53.514;10.482;2022-09-29T16:39:04;13.40;99.90
23683;DHT22;24897;53.514;10.482;2022-09-29T16:41:51;11.80;99.90
23683;DHT22;24897;53.514;10.482;2022-09-29T16:44:41;11.80;99.90
23683;DHT22;24897;53.514;10.482;2022-09-29T16:47:30;11.70;99.90
23683;DHT22;24897;53.514;10.482;2022-09-29T16:50:15;11.70;99.90
23683;DHT22;24897;53.514;10.482;2022-09-29T16:53:00;11.70;99.90
23683;DHT22;24897;53.514;10.482;2022-09-29T16:55:55;11.70;99.90
23683;DHT22;24897;53.514;10.482;2022-09-29T16:58:40;11.60;99.90
23683;DHT22;24897;53.514;10.482;2022-09-29T17:01:24;11.60;99.90
23683;DHT22;24897;53.514;10.482;2022-09-29T17:04:09;11.50;99.90
23683;DHT22;24897;53.514;10.482;2022-09-29T17:06:54;11.50;99.90
23683;DHT22;24897;53.514;10.482;2022-09-29T17:09:39;11.50;99.90
23683;DHT22;24897;53.514;10.482;2022-09-29T17:12:29;11.60;99.90
23683;DHT22;24897;53.514;10.482;2022-09-29T17:15:14;11.20;99.90
23683;DHT22;24897;53.514;10.482;2022-09-29T17:20:44;11.40;99.90
23683;DHT22;24897;53.514;10.482;2022-09-29T17:23:29;10.70;99.90
23683;DHT22;24897;53.514;10.482;2022-09-29T17:26:20;11.60;99.90
23683;DHT22;24897;53.514;10.482;2022-09-29T17:29:24;12.00;99.90
23683;DHT22;24897;53.514;10.482;2022-09-29T17:32:11;11.80;99.90
23683;DHT22;24897;53.514;10.482;2022-09-29T17:34:57;11.40;99.90
23683;DHT22;24897;53.514;10.482;2022-09-29T17:37:43;11.30;99.90
23683;DHT22;24897;53.514;10.482;2022-09-29T17:40:34;11.70;99.90
23683;DHT22;24897;53.514;10.482;2022-09-29T17:43:21;11.50;99.90
23683;DHT22;24897;53.514;10.482;2022-09-29T17:46:09;11.50;99.90
23683;DHT22;24897;53.514;10.482;2022-09-29T17:48:55;11.50;99.90
23683;DHT22;24897;53.514;10.482;2022-09-29T17:51:39;11.50;99.90
23683;DHT22;24897;53.514;10.482;2022-09-29T17:54:23;11.50;99.90
23683;DHT22;24897;53.514;10.482;2022-09-29T17:57:24;11.60;99.90
23683;DHT22;24897;53.514;10.482;2022-09-29T18:00:37;11.60;99.90
23683;DHT22;24897;53.514;10.482;2022-09-29T18:03:22;11.60;99.90
23683;DHT22;24897;53.514;10.482;2022-09-29T18:06:06;11.60;99.90
23683;DHT22;24897;53.514;10.482;2022-09-29T18:08:53;11.60;99.90
23683;DHT22;24897;53.514;10.482;2022-09-29T18:11:37;11.60;99.90
23683;DHT22;24897;53.514;10.482;2022-09-29T18:14:22;11.60;99.90
23683;DHT22;24897;53.514;10.482;2022-09-29T18:17:07;11.50;99.90
23683;DHT22;24897;53.514;10.482;2022-09-29T18:19:51;11.50;99.90
23683;DHT22;24897;53.514;10.482;2022-09-29T18:22:36;11.50;99.90
23683;DHT22;24897;53.514;10.482;2022-09-29T18:25:21;11.50;99.90
23683;DHT22;24897;53.514;10.482;2022-09-29T18:28:05;11.40;99.90
23683;DHT22;24897;53.514;10.482;2022-09-29T18:31:16;11.50;99.90
23683;DHT22;24897;53.514;10.482;2022-09-29T18:34:01;11.50;99.90
23683;DHT22;24897;53.514;10.482;2022-09-29T18:36:45;11.50;99.90
23683;DHT22;24897;53.514;10.482;2022-09-29T18:39:32;11.50;99.90
23683;DHT22;24897;53.514;10.482;2022-09-29T18:42:17;11.80;99.90
23683;DHT22;24897;53.514;10.482;2022-09-29T18:45:01;11.50;99.90
23683;DHT22;24897;53.514;10.482;2022-09-29T18:47:47;11.50;99.90
23683;DHT22;24897;53.514;10.482;2022-09-29T18:50:34;11.60;99.90
23683;DHT22;24897;53.514;10.482;2022-09-29T18:53:22;11.50;99.90
23683;DHT22;24897;53.514;10.482;2022-09-29T18:56:13;11.60;99.90
23683;DHT22;24897;53.514;10.482;2022-09-29T19:04:27;11.40;99.90
23683;DHT22;24897;53.514;10.482;2022-09-29T19:07:13;11.40;99.90
23683;DHT22;24897;53.514;10.482;2022-09-29T19:09:57;11.30;99.90
23683;DHT22;24897;53.514;10.482;2022-09-29T19:12:43;11.40;99.90
23683;DHT22;24897;53.514;10.482;2022-09-29T19:15:30;11.20;99.90
23683;DHT22;24897;53.514;10.482;2022-09-29T19:18:17;11.20;99.90
23683;DHT22;24897;53.514;10.482;2022-09-29T19:21:09;11.20;99.90
23683;DHT22;24897;53.514;10.482;2022-09-29T19:23:55;11.10;99.90
23683;DHT22;24897;53.514;10.482;2022-09-29T19:26:39;11.10;99.90
23683;DHT22;24897;53.514;10.482;2022-09-29T19:29:26;11.20;99.90
23683;DHT22;24897;53.514;10.482;2022-09-29T19:32:10;11.10;99.90
23683;DHT22;24897;53.514;10.482;2022-09-29T19:34:54;10.90;99.90
23683;DHT22;24897;53.514;10.482;2022-09-29T19:37:40;11.10;99.90
23683;DHT22;24897;53.514;10.482;2022-09-29T19:40:28;11.40;99.90
23683;DHT22;24897;53.514;10.482;2022-09-29T19:43:13;11.10;99.90
23683;DHT22;24897;53.514;10.482;2022-09-29T19:46:05;11.10;99.90
23683;DHT22;24897;53.514;10.482;2022-09-29T19:48:50;11.10;99.90
23683;DHT22;24897;53.514;10.482;2022-09-29T19:51:34;11.00;99.90
23683;DHT22;24897;53.514;10.482;2022-09-29T19:54:37;11.00;99.90
23683;DHT22;24897;53.514;10.482;2022-09-29T19:57:22;11.00;99.90
23683;DHT22;24897;53.514;10.482;2022-09-29T20:00:11;10.90;99.90
23683;DHT22;24897;53.514;10.482;2022-09-29T20:02:55;11.10;99.90
23683;DHT22;24897;53.514;10.482;2022-09-29T20:05:39;10.90;99.90
23683;DHT22;24897;53.514;10.482;2022-09-29T20:08:23;11.00;99.90
23683;DHT22;24897;53.514;10.482;2022-09-29T20:11:09;11.20;99.90
23683;DHT22;24897;53.514;10.482;2022-09-29T20:13:53;11.10;99.90
23683;DHT22;24897;53.514;10.482;2022-09-29T20:16:39;11.00;99.90
23683;DHT22;24897;53.514;10.482;2022-09-29T20:19:24;11.10;99.90
23683;DHT22;24897;53.514;10.482;2022-09-29T20:22:11;11.70;99.90
23683;DHT22;24897;53.514;10.482;2022-09-29T20:24:56;11.10;99.90
23683;DHT22;24897;53.514;10.482;2022-09-29T20:27:40;11.10;99.90
23683;DHT22;24897;53.514;10.482;2022-09-29T20:30:25;11.20;99.90
23683;DHT22;24897;53.514;10.482;2022-09-29T20:33:09;11.20;99.90
23683;DHT22;24897;53.514;10.482;2022-09-29T20:38:40;11.30;99.90
23683;DHT22;24897;53.514;10.482;2022-09-29T20:41:26;11.20;99.90
23683;DHT22;24897;53.514;10.482;2022-09-29T20:46:58;11.20;99.90
23683;DHT22;24897;53.514;10.482;2022-09-29T21:00:43;11.40;99.90
23683;DHT22;24897;53.514;10.482;2022-09-29T21:03:27;10.70;99.90
23683;DHT22;24897;53.514;10.482;2022-09-29T21:06:11;11.10;99.90
23683;DHT22;24897;53.514;10.482;2022-09-29T21:08:56;11.40;99.90
23683;DHT22;24897;53.514;10.482;2022-09-29T21:11:41;10.90;99.90
23683;DHT22;24897;53.514;10.482;2022-09-29T21:14:26;11.00;99.90
23683;DHT22;24897;53.514;10.482;2022-09-29T21:22:39;11.20;99.90
23683;DHT22;24897;53.514;10.482;2022-09-29T21:25:24;10.90;99.90
23683;DHT22;24897;53.514;10.482;2022-09-29T21:28:10;10.90;99.90
23683;DHT22;24897;53.514;10.482;2022-09-29T21:31:09;10.90;99.90
23683;DHT22;24897;53.514;10.482;2022-09-29T21:34:03;11.00;99.90
23683;DHT22;24897;53.514;10.482;2022-09-29T21:36:48;10.80;99.90
23683;DHT22;24897;53.514;10.482;2022-09-29T21:39:32;11.00;99.90
23683;DHT22;24897;53.514;10.482;2022-09-29T21:42:16;11.00;99.90
23683;DHT22;24897;53.514;10.482;2022-09-29T21:45:00;10.80;99.90
23683;DHT22;24897;53.514;10.482;2022-09-29T21:47:45;10.90;99.90
23683;DHT22;24897;53.514;10.482;2022-09-29T21:50:48;10.60;99.90
23683;DHT22;24897;53.514;10.482;2022-09-29T21:53:34;10.30;99.90
23683;DHT22;24897;53.514;10.482;2022-09-29T21:56:21;10.60;99.90
23683;DHT22;24897;53.514;10.482;2022-09-29T21:59:06;10.50;99.90
23683;DHT22;24897;53.514;10.482;2022-09-29T22:01:51;10.40;99.90
23683;DHT22;24897;53.514;10.482;2022-09-29T22:04:35;10.50;99.90
23683;DHT22;24897;53.514;10.482;2022-09-29T22:07:19;10.50;99.90
23683;DHT22;24897;53.514;10.482;2022-09-29T22:10:03;10.00;99.90
23683;DHT22;24897;53.514;10.482;2022-09-29T22:15:32;10.60;99.90
23683;DHT22;24897;53.514;10.482;2022-09-29T22:18:17;10.80;99.90
23683;DHT22;24897;53.514;10.482;2022-09-29T22:21:03;9.50;99.90
23683;DHT22;24897;53.514;10.482;2022-09-29T22:23:56;10.50;99.90
23683;DHT22;24897;53.514;10.482;2022-09-29T22:26:40;10.50;99.90
23683;DHT22;24897;53.514;10.482;2022-09-29T22:29:24;10.50;99.90
23683;DHT22;24897;53.514;10.482;2022-09-29T22:32:09;10.40;99.90
23683;DHT22;24897;53.514;10.482;2022-09-29T22:34:53;10.40;99.90
23683;DHT22;24897;53.514;10.482;2022-09-29T22:37:38;10.30;99.90
23683;DHT22;24897;53.514;10.482;2022-09-29T22:40:23;10.30;99.90
23683;DHT22;24897;53.514;10.482;2022-09-29T22:43:07;10.00;99.90
23683;DHT22;24897;53.514;10.482;2022-09-29T22:45:51;10.30;99.90
23683;DHT22;24897;53.514;10.482;2022-09-29T22:48:39;10.70;99.90
23683;DHT22;24897;53.514;10.482;2022-09-29T22:51:26;10.40;99.90
23683;DHT22;24897;53.514;10.482;2022-09-29T22:54:11;9.90;99.90
23683;DHT22;24897;53.514;10.482;2022-09-29T22:57:00;10.30;99.90
23683;DHT22;24897;53.514;10.482;2022-09-29T22:59:44;10.60;99.90
23683;DHT22;24897;53.514;10.482;2022-09-29T23:05:13;10.10;99.90
23683;DHT22;24897;53.514;10.482;2022-09-29T23:07:58;10.50;99.90
23683;DHT22;24897;53.514;10.482;2022-09-29T23:10:45;10.00;99.90
23683;DHT22;24897;53.514;10.482;2022-09-29T23:13:32;9.40;99.90
23683;DHT22;24897;53.514;10.482;2022-09-29T23:16:20;10.40;99.90
23683;DHT22;24897;53.514;10.482;2022-09-29T23:19:09;9.40;99.90
23683;DHT22;24897;53.514;10.482;2022-09-29T23:21:53;9.90;99.90